sensor_id;sensor_type;location;lat;lon;timestamp;temperature;humidity
16674;DHT22;8450;52.654;10.326;2023-10-19T00:00:57;7.60;99.90
16674;DHT22;8450;52.654;10.326;2023-10-19T00:03:24;7.50;99.90
16674;DHT22;8450;52.654;10.326;2023-10-19T00:05:50;7.50;99.90
16674;DHT22;8450;52.654;10.326;2023-10-19T00:08:16;7.50;99.90
16674;DHT22;8450;52.654;10.326;2023-10-19T00:10:52;7.50;99.90
16674;DHT22;8450;52.654;10.326;2023-10-19T00:13:33;7.50;99.90
16674;DHT22;8450;52.654;10.326;2023-10-19T00:16:01;7.50;99.90
16674;DHT22;8450;52.654;10.326;2023-10-19T00:18:36;7.50;99.90
16674;DHT22;8450;52.654;10.326;2023-10-19T00:21:07;7.50;99.90
16674;DHT22;8450;52.654;10.326;2023-10-19T00:23:55;7.50;99.90
16674;DHT22;8450;52.654;10.326;2023-10-19T00:26:23;7.50;99.90
16674;DHT22;8450;52.654;10.326;2023-10-19T00:28:55;7.40;99.90
16674;DHT22;8450;52.654;10.326;2023-10-19T00:31:26;7.40;99.90
16674;DHT22;8450;52.654;10.326;2023-10-19T00:33:53;7.50;99.90
16674;DHT22;8450;52.654;10.326;2023-10-19T00:36:22;7.40;99.90
16674;DHT22;8450;52.654;10.326;2023-10-19T00:38:48;7.50;99.90
16674;DHT22;8450;52.654;10.326;2023-10-19T00:41:14;7.50;99.90
16674;DHT22;8450;52.654;10.326;2023-10-19T00:43:46;7.40;99.90
16674;DHT22;8450;52.654;10.326;2023-10-19T00:46:13;7.40;99.90
16674;DHT22;8450;52.654;10.326;2023-10-19T00:48:48;7.40;99.90
16674;DHT22;8450;52.654;10.326;2023-10-19T00:51:21;7.30;99.90
16674;DHT22;8450;52.654;10.326;2023-10-19T00:54:15;7.30;99.90
16674;DHT22;8450;52.654;10.326;2023-10-19T00:56:47;7.30;99.90
16674;DHT22;8450;52.654;10.326;2023-10-19T00:59:17;7.30;99.90
16674;DHT22;8450;52.654;10.326;2023-10-19T01:01:50;7.30;99.90
16674;DHT22;8450;52.654;10.326;2023-10-19T01:04:19;7.30;99.90
16674;DHT22;8450;52.654;10.326;2023-10-19T01:06:57;7.30;99.90
16674;DHT22;8450;52.654;10.326;2023-10-19T01:09:45;7.30;99.90
16674;DHT22;8450;52.654;10.326;2023-10-19T01:12:11;7.20;99.90
16674;DHT22;8450;52.654;10.326;2023-10-19T01:15:06;7.20;99.90
16674;DHT22;8450;52.654;10.326;2023-10-19T01:17:40;7.30;99.90
16674;DHT22;8450;52.654;10.326;2023-10-19T01:20:16;7.30;99.90
16674;DHT22;8450;52.654;10.326;2023-10-19T01:22:59;7.20;99.90
16674;DHT22;8450;52.654;10.326;2023-10-19T01:25:58;7.20;99.90
16674;DHT22;8450;52.654;10.326;2023-10-19T01:28:28;7.20;99.90
16674;DHT22;8450;52.654;10.326;2023-10-19T01:31:04;7.20;99.90
16674;DHT22;8450;52.654;10.326;2023-10-19T01:33:31;7.20;99.90
16674;DHT22;8450;52.654;10.326;2023-10-19T01:35:59;7.20;99.90
16674;DHT22;8450;52.654;10.326;2023-10-19T01:38:40;7.30;99.90
16674;DHT22;8450;52.654;10.326;2023-10-19T01:41:08;7.30;99.90
16674;DHT22;8450;52.654;10.326;2023-10-19T01:43:44;7.30;99.90
16674;DHT22;8450;52.654;10.326;2023-10-19T01:46:11;7.30;99.90
16674;DHT22;8450;52.654;10.326;2023-10-19T01:48:41;7.20;99.90
16674;DHT22;8450;52.654;10.326;2023-10-19T01:51:08;7.20;99.90
16674;DHT22;8450;52.654;10.326;2023-10-19T01:53:38;7.20;99.90
16674;DHT22;8450;52.654;10.326;2023-10-19T01:56:11;7.20;99.90
16674;DHT22;8450;52.654;10.326;2023-10-19T01:58:39;7.20;99.90
16674;DHT22;8450;52.654;10.326;2023-10-19T02:01:09;7.10;99.90
16674;DHT22;8450;52.654;10.326;2023-10-19T02:03:37;7.10;99.90
16674;DHT22;8450;52.654;10.326;2023-10-19T02:06:07;7.10;99.90
16674;DHT22;8450;52.654;10.326;2023-10-19T02:08:51;7.10;99.90
16674;DHT22;8450;52.654;10.326;2023-10-19T02:11:24;7.00;99.90
16674;DHT22;8450;52.654;10.326;2023-10-19T02:13:55;7.10;99.90
16674;DHT22;8450;52.654;10.326;2023-10-19T02:16:25;7.10;99.90
16674;DHT22;8450;52.654;10.326;2023-10-19T02:18:52;7.00;99.90
16674;DHT22;8450;52.654;10.326;2023-10-19T02:21:19;6.90;99.90
16674;DHT22;8450;52.654;10.326;2023-10-19T02:23:48;7.00;99.90
16674;DHT22;8450;52.654;10.326;2023-10-19T02:26:19;7.00;99.90
16674;DHT22;8450;52.654;10.326;2023-10-19T02:32:11;6.90;99.90
16674;DHT22;8450;52.654;10.326;2023-10-19T02:34:37;6.90;99.90
16674;DHT22;8450;52.654;10.326;2023-10-19T02:37:03;6.80;99.90
16674;DHT22;8450;52.654;10.326;2023-10-19T02:39:28;6.80;99.90
16674;DHT22;8450;52.654;10.326;2023-10-19T02:41:54;6.80;99.90
16674;DHT22;8450;52.654;10.326;2023-10-19T02:44:21;6.80;99.90
16674;DHT22;8450;52.654;10.326;2023-10-19T02:46:52;6.70;99.90
16674;DHT22;8450;52.654;10.326;2023-10-19T02:49:20;6.70;99.90
16674;DHT22;8450;52.654;10.326;2023-10-19T02:51:48;6.70;99.90
16674;DHT22;8450;52.654;10.326;2023-10-19T02:54:16;6.70;99.90
16674;DHT22;8450;52.654;10.326;2023-10-19T02:56:50;6.60;99.90
16674;DHT22;8450;52.654;10.326;2023-10-19T02:59:18;6.70;99.90
16674;DHT22;8450;52.654;10.326;2023-10-19T03:01:47;6.70;99.90
16674;DHT22;8450;52.654;10.326;2023-10-19T03:04:13;6.70;99.90
16674;DHT22;8450;52.654;10.326;2023-10-19T03:06:40;6.70;99.90
16674;DHT22;8450;52.654;10.326;2023-10-19T03:09:07;6.70;99.90
16674;DHT22;8450;52.654;10.326;2023-10-19T03:11:40;6.70;99.90
16674;DHT22;8450;52.654;10.326;2023-10-19T03:14:07;6.60;99.90
16674;DHT22;8450;52.654;10.326;2023-10-19T03:16:34;6.60;99.90
16674;DHT22;8450;52.654;10.326;2023-10-19T03:19:00;6.60;99.90
16674;DHT22;8450;52.654;10.326;2023-10-19T03:21:26;6.60;99.90
16674;DHT22;8450;52.654;10.326;2023-10-19T03:23:58;6.60;99.90
16674;DHT22;8450;52.654;10.326;2023-10-19T03:26:30;6.60;99.90
16674;DHT22;8450;52.654;10.326;2023-10-19T03:29:03;6.50;99.90
16674;DHT22;8450;52.654;10.326;2023-10-19T03:31:33;6.50;99.90
16674;DHT22;8450;52.654;10.326;2023-10-19T03:34:12;6.60;99.90
16674;DHT22;8450;52.654;10.326;2023-10-19T03:36:43;6.60;99.90
16674;DHT22;8450;52.654;10.326;2023-10-19T03:39:10;6.50;99.90
16674;DHT22;8450;52.654;10.326;2023-10-19T03:41:41;6.50;99.90
16674;DHT22;8450;52.654;10.326;2023-10-19T03:44:09;6.50;99.90
16674;DHT22;8450;52.654;10.326;2023-10-19T03:47:01;6.50;99.90
16674;DHT22;8450;52.654;10.326;2023-10-19T03:49:30;6.50;99.90
16674;DHT22;8450;52.654;10.326;2023-10-19T03:52:01;6.50;99.90
16674;DHT22;8450;52.654;10.326;2023-10-19T03:54:38;6.60;99.90
16674;DHT22;8450;52.654;10.326;2023-10-19T03:57:05;6.50;99.90
16674;DHT22;8450;52.654;10.326;2023-10-19T03:59:50;6.50;99.90
16674;DHT22;8450;52.654;10.326;2023-10-19T04:02:21;6.60;99.90
16674;DHT22;8450;52.654;10.326;2023-10-19T04:04:50;6.60;99.90
16674;DHT22;8450;52.654;10.326;2023-10-19T04:07:18;6.60;99.90
16674;DHT22;8450;52.654;10.326;2023-10-19T04:09:44;6.60;99.90
16674;DHT22;8450;52.654;10.326;2023-10-19T04:12:28;6.60;99.90
16674;DHT22;8450;52.654;10.326;2023-10-19T04:14:57;6.60;99.90
16674;DHT22;8450;52.654;10.326;2023-10-19T04:17:23;6.50;99.90
16674;DHT22;8450;52.654;10.326;2023-10-19T04:19:50;6.50;99.90
16674;DHT22;8450;52.654;10.326;2023-10-19T04:22:17;6.60;99.90
16674;DHT22;8450;52.654;10.326;2023-10-19T04:24:52;6.50;99.90
16674;DHT22;8450;52.654;10.326;2023-10-19T04:27:18;6.50;99.90
16674;DHT22;8450;52.654;10.326;2023-10-19T04:29:49;6.50;99.90
16674;DHT22;8450;52.654;10.326;2023-10-19T04:32:16;6.50;99.90
16674;DHT22;8450;52.654;10.326;2023-10-19T04:34:49;6.50;99.90
16674;DHT22;8450;52.654;10.326;2023-10-19T04:37:14;6.60;99.90
16674;DHT22;8450;52.654;10.326;2023-10-19T04:39:44;6.50;99.90
16674;DHT22;8450;52.654;10.326;2023-10-19T04:42:10;6.50;99.90
16674;DHT22;8450;52.654;10.326;2023-10-19T04:44:35;6.50;99.90
16674;DHT22;8450;52.654;10.326;2023-10-19T04:47:01;6.50;99.90
16674;DHT22;8450;52.654;10.326;2023-10-19T04:49:26;6.50;99.90
16674;DHT22;8450;52.654;10.326;2023-10-19T04:51:53;6.50;99.90
16674;DHT22;8450;52.654;10.326;2023-10-19T04:54:19;6.50;99.90
16674;DHT22;8450;52.654;10.326;2023-10-19T04:56:44;6.50;99.90
16674;DHT22;8450;52.654;10.326;2023-10-19T04:59:10;6.50;99.90
16674;DHT22;8450;52.654;10.326;2023-10-19T05:01:36;6.50;99.90
16674;DHT22;8450;52.654;10.326;2023-10-19T05:04:02;6.40;99.90
16674;DHT22;8450;52.654;10.326;2023-10-19T05:06:28;6.50;99.90
16674;DHT22;8450;52.654;10.326;2023-10-19T05:08:54;6.60;99.90
16674;DHT22;8450;52.654;10.326;2023-10-19T05:11:20;6.50;99.90
16674;DHT22;8450;52.654;10.326;2023-10-19T05:13:45;6.50;99.90
16674;DHT22;8450;52.654;10.326;2023-10-19T05:16:11;6.50;99.90
16674;DHT22;8450;52.654;10.326;2023-10-19T05:18:36;6.40;99.90
16674;DHT22;8450;52.654;10.326;2023-10-19T05:21:02;6.50;99.90
16674;DHT22;8450;52.654;10.326;2023-10-19T05:23:28;6.50;99.90
16674;DHT22;8450;52.654;10.326;2023-10-19T05:26:00;6.50;99.90
16674;DHT22;8450;52.654;10.326;2023-10-19T05:28:26;6.50;99.90
16674;DHT22;8450;52.654;10.326;2023-10-19T05:30:52;6.40;99.90
16674;DHT22;8450;52.654;10.326;2023-10-19T05:33:18;6.50;99.90
16674;DHT22;8450;52.654;10.326;2023-10-19T05:35:47;6.40;99.90
16674;DHT22;8450;52.654;10.326;2023-10-19T05:38:13;6.50;99.90
16674;DHT22;8450;52.654;10.326;2023-10-19T05:40:39;6.50;99.90
16674;DHT22;8450;52.654;10.326;2023-10-19T05:43:06;6.50;99.90
16674;DHT22;8450;52.654;10.326;2023-10-19T05:45:33;6.50;99.90
16674;DHT22;8450;52.654;10.326;2023-10-19T05:48:00;6.50;99.90
16674;DHT22;8450;52.654;10.326;2023-10-19T05:50:25;6.40;99.90
16674;DHT22;8450;52.654;10.326;2023-10-19T05:52:53;6.50;99.90
16674;DHT22;8450;52.654;10.326;2023-10-19T05:55:19;6.40;99.90
16674;DHT22;8450;52.654;10.326;2023-10-19T05:57:47;6.40;99.90
16674;DHT22;8450;52.654;10.326;2023-10-19T06:00:12;6.40;99.90
16674;DHT22;8450;52.654;10.326;2023-10-19T06:02:43;6.40;99.90
16674;DHT22;8450;52.654;10.326;2023-10-19T06:05:10;6.40;99.90
16674;DHT22;8450;52.654;10.326;2023-10-19T06:07:35;6.50;99.90
16674;DHT22;8450;52.654;10.326;2023-10-19T06:10:02;6.50;99.90
16674;DHT22;8450;52.654;10.326;2023-10-19T06:12:33;6.40;99.90
16674;DHT22;8450;52.654;10.326;2023-10-19T06:15:00;6.40;99.90
16674;DHT22;8450;52.654;10.326;2023-10-19T06:17:28;6.50;99.90
16674;DHT22;8450;52.654;10.326;2023-10-19T06:19:55;6.50;99.90
16674;DHT22;8450;52.654;10.326;2023-10-19T06:22:21;6.50;99.90
16674;DHT22;8450;52.654;10.326;2023-10-19T06:24:46;6.50;99.90
16674;DHT22;8450;52.654;10.326;2023-10-19T06:27:12;6.50;99.90
16674;DHT22;8450;52.654;10.326;2023-10-19T06:29:38;6.50;99.90
16674;DHT22;8450;52.654;10.326;2023-10-19T06:32:03;6.40;99.90
16674;DHT22;8450;52.654;10.326;2023-10-19T06:34:29;6.40;99.90
16674;DHT22;8450;52.654;10.326;2023-10-19T06:36:55;6.40;99.90
16674;DHT22;8450;52.654;10.326;2023-10-19T06:39:21;6.40;99.90
16674;DHT22;8450;52.654;10.326;2023-10-19T06:41:47;6.40;99.90
16674;DHT22;8450;52.654;10.326;2023-10-19T06:44:13;6.40;99.90
16674;DHT22;8450;52.654;10.326;2023-10-19T06:46:39;6.50;99.90
16674;DHT22;8450;52.654;10.326;2023-10-19T06:49:05;6.50;99.90
16674;DHT22;8450;52.654;10.326;2023-10-19T06:51:31;6.50;99.90
16674;DHT22;8450;52.654;10.326;2023-10-19T06:53:57;6.40;99.90
16674;DHT22;8450;52.654;10.326;2023-10-19T06:56:23;6.40;99.90
16674;DHT22;8450;52.654;10.326;2023-10-19T06:58:49;6.50;99.90
16674;DHT22;8450;52.654;10.326;2023-10-19T07:01:14;6.50;99.90
16674;DHT22;8450;52.654;10.326;2023-10-19T07:03:42;6.40;99.90
16674;DHT22;8450;52.654;10.326;2023-10-19T07:06:07;6.40;99.90
16674;DHT22;8450;52.654;10.326;2023-10-19T07:08:41;6.40;99.90
16674;DHT22;8450;52.654;10.326;2023-10-19T07:11:07;6.40;99.90
16674;DHT22;8450;52.654;10.326;2023-10-19T07:13:33;6.50;99.90
16674;DHT22;8450;52.654;10.326;2023-10-19T07:15:59;6.50;99.90
16674;DHT22;8450;52.654;10.326;2023-10-19T07:18:25;6.50;99.90
16674;DHT22;8450;52.654;10.326;2023-10-19T07:20:51;6.50;99.90
16674;DHT22;8450;52.654;10.326;2023-10-19T07:23:18;6.60;99.90
16674;DHT22;8450;52.654;10.326;2023-10-19T07:25:45;6.50;99.90
16674;DHT22;8450;52.654;10.326;2023-10-19T07:28:13;6.50;99.90
16674;DHT22;8450;52.654;10.326;2023-10-19T07:30:40;6.50;99.90
16674;DHT22;8450;52.654;10.326;2023-10-19T07:33:09;6.50;99.90
16674;DHT22;8450;52.654;10.326;2023-10-19T07:35:36;6.60;99.90
16674;DHT22;8450;52.654;10.326;2023-10-19T07:38:05;6.60;99.90
16674;DHT22;8450;52.654;10.326;2023-10-19T07:40:36;6.50;99.90
16674;DHT22;8450;52.654;10.326;2023-10-19T07:43:02;6.60;99.90
16674;DHT22;8450;52.654;10.326;2023-10-19T07:45:29;6.60;99.90
16674;DHT22;8450;52.654;10.326;2023-10-19T07:47:57;6.60;99.90
16674;DHT22;8450;52.654;10.326;2023-10-19T07:50:23;6.60;99.90
16674;DHT22;8450;52.654;10.326;2023-10-19T07:52:53;6.60;99.90
16674;DHT22;8450;52.654;10.326;2023-10-19T07:55:21;6.60;99.90
16674;DHT22;8450;52.654;10.326;2023-10-19T07:57:51;6.60;99.90
16674;DHT22;8450;52.654;10.326;2023-10-19T08:00:19;6.60;99.90
16674;DHT22;8450;52.654;10.326;2023-10-19T08:02:45;6.60;99.90
16674;DHT22;8450;52.654;10.326;2023-10-19T08:05:14;6.60;99.90
16674;DHT22;8450;52.654;10.326;2023-10-19T08:07:41;6.70;99.90
16674;DHT22;8450;52.654;10.326;2023-10-19T08:10:10;6.60;99.90
16674;DHT22;8450;52.654;10.326;2023-10-19T08:12:38;6.60;99.90
16674;DHT22;8450;52.654;10.326;2023-10-19T08:15:04;6.70;99.90
16674;DHT22;8450;52.654;10.326;2023-10-19T08:17:32;6.70;99.90
16674;DHT22;8450;52.654;10.326;2023-10-19T08:19:59;6.70;99.90
16674;DHT22;8450;52.654;10.326;2023-10-19T08:22:28;6.70;99.90
16674;DHT22;8450;52.654;10.326;2023-10-19T08:24:53;6.70;99.90
16674;DHT22;8450;52.654;10.326;2023-10-19T08:27:20;6.70;99.90
16674;DHT22;8450;52.654;10.326;2023-10-19T08:29:46;6.70;99.90
16674;DHT22;8450;52.654;10.326;2023-10-19T08:32:12;6.70;99.90
16674;DHT22;8450;52.654;10.326;2023-10-19T08:34:40;6.80;99.90
16674;DHT22;8450;52.654;10.326;2023-10-19T08:37:07;6.80;99.90
16674;DHT22;8450;52.654;10.326;2023-10-19T08:39:33;6.80;99.90
16674;DHT22;8450;52.654;10.326;2023-10-19T08:42:03;6.90;99.90
16674;DHT22;8450;52.654;10.326;2023-10-19T08:44:30;6.80;99.90
16674;DHT22;8450;52.654;10.326;2023-10-19T08:46:56;6.90;99.90
16674;DHT22;8450;52.654;10.326;2023-10-19T08:49:23;6.90;99.90
16674;DHT22;8450;52.654;10.326;2023-10-19T08:51:49;6.90;99.90
16674;DHT22;8450;52.654;10.326;2023-10-19T08:54:16;6.90;99.90
16674;DHT22;8450;52.654;10.326;2023-10-19T08:56:42;6.90;99.90
16674;DHT22;8450;52.654;10.326;2023-10-19T08:59:08;6.90;99.90
16674;DHT22;8450;52.654;10.326;2023-10-19T09:01:38;7.00;99.90
16674;DHT22;8450;52.654;10.326;2023-10-19T09:04:04;6.90;99.90
16674;DHT22;8450;52.654;10.326;2023-10-19T09:06:34;7.00;99.90
16674;DHT22;8450;52.654;10.326;2023-10-19T09:09:11;7.00;99.90
16674;DHT22;8450;52.654;10.326;2023-10-19T09:11:48;6.90;99.90
16674;DHT22;8450;52.654;10.326;2023-10-19T09:14:20;7.00;99.90
16674;DHT22;8450;52.654;10.326;2023-10-19T09:16:56;7.00;99.90
16674;DHT22;8450;52.654;10.326;2023-10-19T09:19:41;7.00;99.90
16674;DHT22;8450;52.654;10.326;2023-10-19T09:22:07;7.00;99.90
16674;DHT22;8450;52.654;10.326;2023-10-19T09:24:37;7.00;99.90
16674;DHT22;8450;52.654;10.326;2023-10-19T09:27:05;7.00;99.90
16674;DHT22;8450;52.654;10.326;2023-10-19T09:29:31;7.10;99.90
16674;DHT22;8450;52.654;10.326;2023-10-19T09:31:58;7.10;99.90
16674;DHT22;8450;52.654;10.326;2023-10-19T09:34:29;7.10;99.90
16674;DHT22;8450;52.654;10.326;2023-10-19T09:36:59;7.10;99.90
16674;DHT22;8450;52.654;10.326;2023-10-19T09:39:27;7.10;99.90
16674;DHT22;8450;52.654;10.326;2023-10-19T09:42:09;7.10;99.90
16674;DHT22;8450;52.654;10.326;2023-10-19T09:44:42;7.10;99.90
16674;DHT22;8450;52.654;10.326;2023-10-19T09:47:14;7.10;99.90
16674;DHT22;8450;52.654;10.326;2023-10-19T09:49:41;7.10;99.90
16674;DHT22;8450;52.654;10.326;2023-10-19T09:52:09;7.00;99.90
16674;DHT22;8450;52.654;10.326;2023-10-19T09:54:57;7.00;99.90
16674;DHT22;8450;52.654;10.326;2023-10-19T09:57:36;7.10;99.90
16674;DHT22;8450;52.654;10.326;2023-10-19T10:00:04;7.20;99.90
16674;DHT22;8450;52.654;10.326;2023-10-19T10:02:42;7.10;99.90
16674;DHT22;8450;52.654;10.326;2023-10-19T10:10:49;7.20;99.90
16674;DHT22;8450;52.654;10.326;2023-10-19T10:15:49;7.20;99.90
16674;DHT22;8450;52.654;10.326;2023-10-19T10:18:17;7.30;99.90
16674;DHT22;8450;52.654;10.326;2023-10-19T10:20:43;7.30;99.90
16674;DHT22;8450;52.654;10.326;2023-10-19T10:23:23;7.30;99.90
16674;DHT22;8450;52.654;10.326;2023-10-19T10:25:52;7.30;99.90
16674;DHT22;8450;52.654;10.326;2023-10-19T10:28:19;7.30;99.90
16674;DHT22;8450;52.654;10.326;2023-10-19T10:31:21;7.30;99.90
16674;DHT22;8450;52.654;10.326;2023-10-19T10:33:52;7.30;99.90
16674;DHT22;8450;52.654;10.326;2023-10-19T10:36:20;7.30;99.90
16674;DHT22;8450;52.654;10.326;2023-10-19T10:38:48;7.30;99.90
16674;DHT22;8450;52.654;10.326;2023-10-19T10:41:20;7.30;99.90
16674;DHT22;8450;52.654;10.326;2023-10-19T10:43:53;7.40;99.90
16674;DHT22;8450;52.654;10.326;2023-10-19T10:46:21;7.40;99.90
16674;DHT22;8450;52.654;10.326;2023-10-19T10:48:49;7.30;99.90
16674;DHT22;8450;52.654;10.326;2023-10-19T10:51:22;7.40;99.90
16674;DHT22;8450;52.654;10.326;2023-10-19T10:53:52;7.40;99.90
16674;DHT22;8450;52.654;10.326;2023-10-19T10:56:20;7.40;99.90
16674;DHT22;8450;52.654;10.326;2023-10-19T10:58:47;7.30;99.90
16674;DHT22;8450;52.654;10.326;2023-10-19T11:01:13;7.40;99.90
16674;DHT22;8450;52.654;10.326;2023-10-19T11:03:42;7.40;99.90
16674;DHT22;8450;52.654;10.326;2023-10-19T11:06:09;7.40;99.90
16674;DHT22;8450;52.654;10.326;2023-10-19T11:08:35;7.40;99.90
16674;DHT22;8450;52.654;10.326;2023-10-19T11:11:08;7.40;99.90
16674;DHT22;8450;52.654;10.326;2023-10-19T11:13:38;7.50;99.90
16674;DHT22;8450;52.654;10.326;2023-10-19T11:16:06;7.50;99.90
16674;DHT22;8450;52.654;10.326;2023-10-19T11:18:37;7.50;99.90
16674;DHT22;8450;52.654;10.326;2023-10-19T11:21:09;7.50;99.90
16674;DHT22;8450;52.654;10.326;2023-10-19T11:26:01;7.50;99.90
16674;DHT22;8450;52.654;10.326;2023-10-19T11:28:28;7.60;99.90
16674;DHT22;8450;52.654;10.326;2023-10-19T11:31:17;7.60;99.90
16674;DHT22;8450;52.654;10.326;2023-10-19T11:33:45;7.60;99.90
16674;DHT22;8450;52.654;10.326;2023-10-19T11:36:12;7.50;99.90
16674;DHT22;8450;52.654;10.326;2023-10-19T11:38:46;7.60;99.90
16674;DHT22;8450;52.654;10.326;2023-10-19T11:41:13;7.60;99.90
16674;DHT22;8450;52.654;10.326;2023-10-19T11:43:47;7.60;99.90
16674;DHT22;8450;52.654;10.326;2023-10-19T11:46:13;7.60;99.90
16674;DHT22;8450;52.654;10.326;2023-10-19T11:48:40;7.60;99.90
16674;DHT22;8450;52.654;10.326;2023-10-19T11:51:08;7.60;99.90
16674;DHT22;8450;52.654;10.326;2023-10-19T11:53:37;7.60;99.90
16674;DHT22;8450;52.654;10.326;2023-10-19T11:56:07;7.50;99.90
16674;DHT22;8450;52.654;10.326;2023-10-19T11:58:33;7.60;99.90
16674;DHT22;8450;52.654;10.326;2023-10-19T12:01:08;7.60;99.90
16674;DHT22;8450;52.654;10.326;2023-10-19T12:03:40;7.60;99.90
16674;DHT22;8450;52.654;10.326;2023-10-19T12:06:06;7.50;99.90
16674;DHT22;8450;52.654;10.326;2023-10-19T12:08:33;7.50;99.90
16674;DHT22;8450;52.654;10.326;2023-10-19T12:10:59;7.50;99.90
16674;DHT22;8450;52.654;10.326;2023-10-19T12:13:27;7.50;99.90
16674;DHT22;8450;52.654;10.326;2023-10-19T12:15:53;7.40;99.90
16674;DHT22;8450;52.654;10.326;2023-10-19T12:18:21;7.40;99.90
16674;DHT22;8450;52.654;10.326;2023-10-19T12:20:47;7.50;99.90
16674;DHT22;8450;52.654;10.326;2023-10-19T12:23:13;7.40;99.90
16674;DHT22;8450;52.654;10.326;2023-10-19T12:25:39;7.50;99.90
16674;DHT22;8450;52.654;10.326;2023-10-19T12:28:08;7.50;99.90
16674;DHT22;8450;52.654;10.326;2023-10-19T12:30:38;7.50;99.90
16674;DHT22;8450;52.654;10.326;2023-10-19T12:33:04;7.50;99.90
16674;DHT22;8450;52.654;10.326;2023-10-19T12:35:40;7.50;99.90
16674;DHT22;8450;52.654;10.326;2023-10-19T12:38:17;7.50;99.90
16674;DHT22;8450;52.654;10.326;2023-10-19T12:40:49;7.50;99.90
16674;DHT22;8450;52.654;10.326;2023-10-19T12:43:16;7.50;99.90
16674;DHT22;8450;52.654;10.326;2023-10-19T12:45:44;7.40;99.90
16674;DHT22;8450;52.654;10.326;2023-10-19T12:48:16;7.40;99.90
16674;DHT22;8450;52.654;10.326;2023-10-19T12:50:42;7.40;99.90
16674;DHT22;8450;52.654;10.326;2023-10-19T12:53:08;7.50;99.90
16674;DHT22;8450;52.654;10.326;2023-10-19T12:55:35;7.50;99.90
16674;DHT22;8450;52.654;10.326;2023-10-19T12:58:03;7.50;99.90
16674;DHT22;8450;52.654;10.326;2023-10-19T13:00:33;7.50;99.90
16674;DHT22;8450;52.654;10.326;2023-10-19T13:03:07;7.50;99.90
16674;DHT22;8450;52.654;10.326;2023-10-19T13:05:37;7.50;99.90
16674;DHT22;8450;52.654;10.326;2023-10-19T13:08:05;7.50;99.90
16674;DHT22;8450;52.654;10.326;2023-10-19T13:10:31;7.50;99.90
16674;DHT22;8450;52.654;10.326;2023-10-19T13:13:01;7.50;99.90
16674;DHT22;8450;52.654;10.326;2023-10-19T13:15:31;7.50;99.90
16674;DHT22;8450;52.654;10.326;2023-10-19T13:17:57;7.50;99.90
16674;DHT22;8450;52.654;10.326;2023-10-19T13:20:27;7.50;99.90
16674;DHT22;8450;52.654;10.326;2023-10-19T13:22:56;7.50;99.90
16674;DHT22;8450;52.654;10.326;2023-10-19T13:25:21;7.50;99.90
16674;DHT22;8450;52.654;10.326;2023-10-19T13:28:11;7.40;99.90
16674;DHT22;8450;52.654;10.326;2023-10-19T13:30:41;7.50;99.90
16674;DHT22;8450;52.654;10.326;2023-10-19T13:33:08;7.40;99.90
16674;DHT22;8450;52.654;10.326;2023-10-19T13:35:37;7.40;99.90
16674;DHT22;8450;52.654;10.326;2023-10-19T13:38:07;7.50;99.90
16674;DHT22;8450;52.654;10.326;2023-10-19T13:40:34;7.50;99.90
16674;DHT22;8450;52.654;10.326;2023-10-19T13:43:00;7.50;99.90
16674;DHT22;8450;52.654;10.326;2023-10-19T13:45:26;7.50;99.90
16674;DHT22;8450;52.654;10.326;2023-10-19T13:47:52;7.50;99.90
16674;DHT22;8450;52.654;10.326;2023-10-19T13:50:22;7.60;99.90
16674;DHT22;8450;52.654;10.326;2023-10-19T13:52:55;7.50;99.90
16674;DHT22;8450;52.654;10.326;2023-10-19T13:55:26;7.50;99.90
16674;DHT22;8450;52.654;10.326;2023-10-19T13:57:51;7.50;99.90
16674;DHT22;8450;52.654;10.326;2023-10-19T14:00:18;7.50;99.90
16674;DHT22;8450;52.654;10.326;2023-10-19T14:02:56;7.50;99.90
16674;DHT22;8450;52.654;10.326;2023-10-19T14:05:22;7.40;99.90
16674;DHT22;8450;52.654;10.326;2023-10-19T14:07:52;7.40;99.90
16674;DHT22;8450;52.654;10.326;2023-10-19T14:10:18;7.40;99.90
16674;DHT22;8450;52.654;10.326;2023-10-19T14:12:48;7.40;99.90
16674;DHT22;8450;52.654;10.326;2023-10-19T14:15:14;7.50;99.90
16674;DHT22;8450;52.654;10.326;2023-10-19T14:17:41;7.50;99.90
16674;DHT22;8450;52.654;10.326;2023-10-19T14:20:08;7.40;99.90
16674;DHT22;8450;52.654;10.326;2023-10-19T14:22:41;7.40;99.90
16674;DHT22;8450;52.654;10.326;2023-10-19T14:25:08;7.40;99.90
16674;DHT22;8450;52.654;10.326;2023-10-19T14:27:41;7.40;99.90
16674;DHT22;8450;52.654;10.326;2023-10-19T14:30:27;7.30;99.90
16674;DHT22;8450;52.654;10.326;2023-10-19T14:32:55;7.30;99.90
16674;DHT22;8450;52.654;10.326;2023-10-19T14:35:23;7.30;99.90
16674;DHT22;8450;52.654;10.326;2023-10-19T14:37:50;7.30;99.90
16674;DHT22;8450;52.654;10.326;2023-10-19T14:40:18;7.30;99.90
16674;DHT22;8450;52.654;10.326;2023-10-19T14:42:47;7.30;99.90
16674;DHT22;8450;52.654;10.326;2023-10-19T14:45:14;7.30;99.90
16674;DHT22;8450;52.654;10.326;2023-10-19T14:47:42;7.20;99.90
16674;DHT22;8450;52.654;10.326;2023-10-19T14:50:11;7.20;99.90
16674;DHT22;8450;52.654;10.326;2023-10-19T14:52:42;7.20;99.90
16674;DHT22;8450;52.654;10.326;2023-10-19T14:55:09;7.20;99.90
16674;DHT22;8450;52.654;10.326;2023-10-19T14:57:35;7.20;99.90
16674;DHT22;8450;52.654;10.326;2023-10-19T15:00:04;7.30;99.90
16674;DHT22;8450;52.654;10.326;2023-10-19T15:02:44;7.20;99.90
16674;DHT22;8450;52.654;10.326;2023-10-19T15:05:10;7.20;99.90
16674;DHT22;8450;52.654;10.326;2023-10-19T15:07:40;7.30;99.90
16674;DHT22;8450;52.654;10.326;2023-10-19T15:10:06;7.30;99.90
16674;DHT22;8450;52.654;10.326;2023-10-19T15:12:36;7.20;99.90
16674;DHT22;8450;52.654;10.326;2023-10-19T15:15:02;7.20;99.90
16674;DHT22;8450;52.654;10.326;2023-10-19T15:17:27;7.20;99.90
16674;DHT22;8450;52.654;10.326;2023-10-19T15:19:53;7.20;99.90
16674;DHT22;8450;52.654;10.326;2023-10-19T15:22:18;7.20;99.90
16674;DHT22;8450;52.654;10.326;2023-10-19T15:24:44;7.20;99.90
16674;DHT22;8450;52.654;10.326;2023-10-19T15:27:10;7.10;99.90
16674;DHT22;8450;52.654;10.326;2023-10-19T15:29:36;7.10;99.90
16674;DHT22;8450;52.654;10.326;2023-10-19T15:32:01;7.10;99.90
16674;DHT22;8450;52.654;10.326;2023-10-19T15:34:27;7.10;99.90
16674;DHT22;8450;52.654;10.326;2023-10-19T15:36:55;7.10;99.90
16674;DHT22;8450;52.654;10.326;2023-10-19T15:39:21;7.10;99.90
16674;DHT22;8450;52.654;10.326;2023-10-19T15:41:48;7.10;99.90
16674;DHT22;8450;52.654;10.326;2023-10-19T15:44:14;7.10;99.90
16674;DHT22;8450;52.654;10.326;2023-10-19T15:46:40;7.10;99.90
16674;DHT22;8450;52.654;10.326;2023-10-19T15:49:08;7.10;99.90
16674;DHT22;8450;52.654;10.326;2023-10-19T15:51:34;7.10;99.90
16674;DHT22;8450;52.654;10.326;2023-10-19T15:54:01;7.10;99.90
16674;DHT22;8450;52.654;10.326;2023-10-19T15:56:28;7.10;99.90
16674;DHT22;8450;52.654;10.326;2023-10-19T15:58:54;7.10;99.90
16674;DHT22;8450;52.654;10.326;2023-10-19T16:01:19;7.10;99.90
16674;DHT22;8450;52.654;10.326;2023-10-19T16:03:45;7.10;99.90
16674;DHT22;8450;52.654;10.326;2023-10-19T16:06:11;7.10;99.90
16674;DHT22;8450;52.654;10.326;2023-10-19T16:08:36;7.10;99.90
16674;DHT22;8450;52.654;10.326;2023-10-19T16:11:03;7.10;99.90